createdAt,value
2022-12-08T00:01:25.637Z,4.89
2022-12-08T00:03:53.184Z,4.82
2022-12-08T00:06:44.668Z,4.72
2022-12-08T00:09:38.335Z,4.69
2022-12-08T00:12:12.255Z,4.72
2022-12-08T00:14:42.264Z,4.73
2022-12-08T00:17:11.959Z,4.76
2022-12-08T00:19:40.352Z,4.89
2022-12-08T00:22:09.006Z,4.87
2022-12-08T00:24:41.511Z,4.81
2022-12-08T00:27:09.963Z,4.75
2022-12-08T00:29:37.230Z,4.69
2022-12-08T00:32:04.958Z,4.69
2022-12-08T00:34:32.540Z,4.71
2022-12-08T00:36:59.599Z,4.86
2022-12-08T00:39:26.748Z,4.92
2022-12-08T00:42:12.098Z,4.93
2022-12-08T00:44:40.251Z,4.96
2022-12-08T00:47:07.330Z,4.98
2022-12-08T00:49:34.352Z,4.99
2022-12-08T00:52:01.814Z,4.96
2022-12-08T00:54:28.900Z,4.81
2022-12-08T00:56:55.863Z,4.85
2022-12-08T00:59:22.876Z,4.81
2022-12-08T01:01:49.889Z,4.85
2022-12-08T01:04:19.298Z,4.94
2022-12-08T01:06:47.254Z,5.00
2022-12-08T01:09:15.780Z,5.00
2022-12-08T01:11:44.772Z,5.00
2022-12-08T01:14:12.666Z,4.88
2022-12-08T01:16:41.839Z,4.84
2022-12-08T01:19:11.094Z,4.74
2022-12-08T01:21:38.196Z,4.79
2022-12-08T01:24:06.016Z,4.81
2022-12-08T01:26:33.109Z,4.78
2022-12-08T01:29:00.244Z,4.81
2022-12-08T01:31:27.377Z,4.90
2022-12-08T01:33:54.442Z,4.86
2022-12-08T01:36:26.734Z,4.81
2022-12-08T01:38:54.817Z,4.83
2022-12-08T01:41:24.492Z,4.89
2022-12-08T01:44:38.391Z,4.93
2022-12-08T01:47:05.714Z,4.89
2022-12-08T01:49:35.824Z,4.87
2022-12-08T01:52:18.963Z,4.88
2022-12-08T01:54:55.686Z,4.95
2022-12-08T01:57:37.915Z,4.99
2022-12-08T02:00:10.821Z,5.01
2022-12-08T02:03:14.681Z,4.98
2022-12-08T02:05:42.147Z,4.86
2022-12-08T02:08:13.080Z,4.79
2022-12-08T02:10:43.254Z,4.80
2022-12-08T02:13:15.109Z,4.82
2022-12-08T02:16:17.477Z,4.81
2022-12-08T02:19:34.290Z,4.76
2022-12-08T02:22:19.299Z,4.75
2022-12-08T02:25:08.533Z,4.69
2022-12-08T02:27:47.940Z,4.62
2022-12-08T02:30:45.485Z,4.55
2022-12-08T02:33:35.192Z,4.53
2022-12-08T02:36:32.209Z,4.54
2022-12-08T02:39:35.354Z,4.54
2022-12-08T02:42:33.220Z,4.51
2022-12-08T02:45:30.318Z,4.40
2022-12-08T02:47:58.998Z,4.42
2022-12-08T02:50:26.859Z,4.50
2022-12-08T02:52:54.389Z,4.50
2022-12-08T02:55:46.510Z,4.53
2022-12-08T02:58:41.796Z,4.56
2022-12-08T03:02:04.046Z,4.60
2022-12-08T03:04:46.346Z,4.60
2022-12-08T03:07:28.320Z,4.58
2022-12-08T03:10:01.582Z,4.51
2022-12-08T03:12:36.471Z,4.49
2022-12-08T03:15:09.912Z,4.46
2022-12-08T03:17:39.405Z,4.50
2022-12-08T03:20:11.450Z,4.49
2022-12-08T03:22:41.747Z,4.54
2022-12-08T03:25:13.682Z,4.52
2022-12-08T03:27:41.401Z,4.49
2022-12-08T03:30:09.874Z,4.52
2022-12-08T03:33:00.030Z,4.54
2022-12-08T03:35:31.159Z,4.57
2022-12-08T03:38:12.658Z,4.62
2022-12-08T03:40:39.598Z,4.65
2022-12-08T03:43:06.775Z,4.64
2022-12-08T03:45:34.102Z,4.65
2022-12-08T03:48:01.156Z,4.68
2022-12-08T03:50:28.111Z,4.67
2022-12-08T03:52:55.135Z,4.62
2022-12-08T03:55:22.168Z,4.60
2022-12-08T03:57:49.089Z,4.65
2022-12-08T04:00:17.257Z,4.63
2022-12-08T04:02:44.474Z,4.61
2022-12-08T04:05:11.545Z,4.52
2022-12-08T04:07:38.595Z,4.46
2022-12-08T04:10:06.736Z,4.49
2022-12-08T04:12:35.851Z,4.46
2022-12-08T04:15:02.902Z,4.49
2022-12-08T04:17:30.004Z,4.50
2022-12-08T04:19:57.185Z,4.57
2022-12-08T04:22:24.255Z,4.58
2022-12-08T04:24:51.395Z,4.54
2022-12-08T04:27:18.544Z,4.54
2022-12-08T04:29:45.682Z,4.57
2022-12-08T04:32:14.943Z,4.61
2022-12-08T04:34:41.989Z,4.65
2022-12-08T04:37:09.235Z,4.68
2022-12-08T04:39:36.267Z,4.65
2022-12-08T04:42:03.506Z,4.63
2022-12-08T04:44:30.553Z,4.66
2022-12-08T04:46:57.636Z,4.56
2022-12-08T04:49:24.845Z,4.55
2022-12-08T04:51:51.819Z,4.57
2022-12-08T04:54:18.846Z,4.59
2022-12-08T04:56:45.880Z,4.65
2022-12-08T04:59:12.935Z,4.68
2022-12-08T05:01:39.943Z,4.77
2022-12-08T05:04:06.973Z,4.81
2022-12-08T05:06:33.876Z,4.83
2022-12-08T05:09:00.779Z,4.87
2022-12-08T05:11:53.029Z,4.96
2022-12-08T05:14:20.074Z,5.13
2022-12-08T05:16:48.843Z,5.11
2022-12-08T05:19:16.432Z,4.91
2022-12-08T05:21:43.737Z,4.76
2022-12-08T05:24:10.887Z,4.70
2022-12-08T05:26:37.874Z,4.70
2022-12-08T05:29:13.256Z,4.81
2022-12-08T05:31:40.352Z,4.53
2022-12-08T05:34:07.377Z,4.46
2022-12-08T05:36:34.460Z,4.47
2022-12-08T05:39:01.502Z,4.43
2022-12-08T05:41:30.659Z,4.36
2022-12-08T05:43:57.714Z,4.31
2022-12-08T05:46:24.983Z,4.31
2022-12-08T05:48:52.106Z,4.33
2022-12-08T05:51:21.444Z,4.39
2022-12-08T05:53:50.715Z,4.40
2022-12-08T05:56:18.433Z,4.42
2022-12-08T05:58:46.154Z,4.40
2022-12-08T06:01:30.454Z,4.39
2022-12-08T06:03:59.492Z,4.35
2022-12-08T06:06:27.033Z,4.39
2022-12-08T06:08:54.582Z,4.37
2022-12-08T06:11:27.971Z,4.36
2022-12-08T06:13:56.932Z,4.40
2022-12-08T06:16:26.499Z,4.36
2022-12-08T06:18:53.864Z,4.41
2022-12-08T06:21:21.301Z,4.43
2022-12-08T06:23:51.728Z,4.47
2022-12-08T06:26:19.203Z,4.44
2022-12-08T06:28:46.286Z,4.40
2022-12-08T06:31:22.843Z,4.47
2022-12-08T06:33:50.384Z,4.55
2022-12-08T06:36:18.974Z,4.65
2022-12-08T06:38:46.926Z,4.72
2022-12-08T06:41:16.407Z,4.81
2022-12-08T06:43:43.506Z,4.85
2022-12-08T06:46:13.564Z,4.87
2022-12-08T06:48:40.873Z,4.94
2022-12-08T06:51:14.171Z,5.01
2022-12-08T06:53:41.738Z,5.05
2022-12-08T06:56:09.563Z,5.10
2022-12-08T06:58:36.943Z,5.18
2022-12-08T07:01:13.914Z,5.50
2022-12-08T07:03:44.355Z,5.41
2022-12-08T07:06:17.790Z,5.61
2022-12-08T07:08:44.919Z,5.52
2022-12-08T07:11:18.014Z,5.54
2022-12-08T07:13:48.377Z,5.58
2022-12-08T07:16:15.893Z,5.62
2022-12-08T07:18:44.418Z,5.68
2022-12-08T07:21:15.325Z,5.80
2022-12-08T07:23:43.752Z,5.94
2022-12-08T07:26:13.562Z,6.06
2022-12-08T07:28:43.197Z,6.10
2022-12-08T07:31:19.296Z,6.28
2022-12-08T07:33:47.410Z,6.25
2022-12-08T07:36:15.583Z,6.18
2022-12-08T07:38:43.859Z,6.15
2022-12-08T07:41:16.334Z,6.22
2022-12-08T07:43:43.812Z,6.28
2022-12-08T07:46:15.767Z,6.28
2022-12-08T07:48:43.376Z,6.26
2022-12-08T07:51:13.370Z,6.27
2022-12-08T07:53:42.852Z,6.23
2022-12-08T07:56:12.196Z,6.25
2022-12-08T07:58:40.616Z,6.28
2022-12-08T08:01:19.958Z,6.31
2022-12-08T08:03:47.252Z,6.27
2022-12-08T08:06:14.701Z,6.24
2022-12-08T08:08:41.903Z,6.23
2022-12-08T08:11:17.411Z,6.24
2022-12-08T08:13:48.730Z,6.28
2022-12-08T08:16:16.008Z,6.26
2022-12-08T08:18:43.927Z,6.29
2022-12-08T08:23:58.417Z,6.42
2022-12-08T08:26:25.702Z,6.47
2022-12-08T08:28:52.747Z,6.55
2022-12-08T08:31:25.512Z,6.56
2022-12-08T08:33:53.230Z,6.60
2022-12-08T08:36:22.188Z,6.63
2022-12-08T08:38:49.325Z,6.63
2022-12-08T08:41:16.412Z,6.69
2022-12-08T08:43:43.689Z,6.69
2022-12-08T08:46:11.297Z,6.72
2022-12-08T08:48:38.636Z,6.75
2022-12-08T08:51:13.676Z,6.79
2022-12-08T08:53:41.195Z,6.86
2022-12-08T08:56:19.458Z,6.92
2022-12-08T08:58:48.969Z,7.00
2022-12-08T09:01:19.400Z,7.02
2022-12-08T09:03:47.007Z,7.02
2022-12-08T09:06:17.591Z,6.99
2022-12-08T09:08:48.333Z,7.00
2022-12-08T09:11:15.471Z,7.12
2022-12-08T09:13:48.332Z,7.24
2022-12-08T09:16:15.591Z,7.39
2022-12-08T09:18:42.885Z,7.53
2022-12-08T09:21:13.511Z,7.62
2022-12-08T09:23:40.945Z,7.73
2022-12-08T09:26:08.573Z,7.83
2022-12-08T09:28:36.044Z,8.00
2022-12-08T09:31:03.229Z,8.16
2022-12-08T09:33:30.499Z,8.32
2022-12-08T09:36:01.637Z,8.48
2022-12-08T09:38:28.684Z,8.54
2022-12-08T09:40:56.058Z,8.63
2022-12-08T09:43:55.421Z,8.80
2022-12-08T09:46:22.773Z,8.96
2022-12-08T09:48:57.843Z,9.12
2022-12-08T09:51:27.079Z,9.17
2022-12-08T09:54:00.420Z,9.21
2022-12-08T09:56:31.307Z,9.32
2022-12-08T09:59:03.038Z,9.47
2022-12-08T10:01:40.014Z,9.60
2022-12-08T10:04:27.796Z,9.92
2022-12-08T10:07:13.647Z,10.10
2022-12-08T10:09:50.216Z,10.28
2022-12-08T10:12:44.477Z,10.54
2022-12-08T10:15:38.124Z,10.82
2022-12-08T10:18:13.301Z,10.98
2022-12-08T10:20:45.418Z,10.97
2022-12-08T10:23:37.974Z,11.02
2022-12-08T10:26:14.695Z,11.17
2022-12-08T10:28:45.228Z,11.39
2022-12-08T10:31:24.224Z,11.55
2022-12-08T10:34:00.229Z,11.61
2022-12-08T10:36:58.370Z,11.68
2022-12-08T10:40:10.469Z,11.79
2022-12-08T10:42:52.828Z,12.07
2022-12-08T10:45:46.309Z,12.31
2022-12-08T10:48:18.574Z,12.55
2022-12-08T10:50:57.283Z,12.72
2022-12-08T10:53:33.442Z,12.82
2022-12-08T10:56:16.628Z,12.97
2022-12-08T10:58:47.471Z,13.12
2022-12-08T11:01:37.089Z,13.10
2022-12-08T11:04:07.744Z,13.17
2022-12-08T11:06:42.405Z,13.28
2022-12-08T11:09:48.331Z,13.48
2022-12-08T15:35:54.467Z,10.71
2022-12-08T15:38:25.615Z,10.76
2022-12-08T15:40:53.677Z,10.69
2022-12-08T15:43:21.160Z,10.56
2022-12-08T15:45:58.499Z,10.49
2022-12-08T15:48:28.545Z,10.44
2022-12-08T15:50:56.498Z,10.50
2022-12-08T15:53:23.678Z,10.49
2022-12-08T15:56:26.203Z,10.42
2022-12-08T15:58:53.504Z,10.39
2022-12-08T16:01:21.896Z,10.36
2022-12-08T16:09:40.904Z,10.26
2022-12-08T16:13:19.985Z,10.23
2022-12-08T16:18:24.154Z,10.12
2022-12-08T16:23:45.934Z,9.99
2022-12-08T16:29:03.184Z,9.84
2022-12-08T16:31:30.147Z,9.90
2022-12-08T16:33:57.224Z,9.77
2022-12-08T16:36:24.118Z,9.59
2022-12-08T16:38:51.137Z,9.53
2022-12-08T16:41:37.085Z,9.51
2022-12-08T16:44:06.184Z,9.47
2022-12-08T16:46:34.913Z,9.47
2022-12-08T16:49:03.088Z,9.46
2022-12-08T16:51:30.105Z,9.35
2022-12-08T16:53:59.792Z,9.33
2022-12-08T16:56:32.564Z,9.35
2022-12-08T16:59:01.396Z,9.59
2022-12-08T17:01:28.520Z,9.42
2022-12-08T17:04:29.271Z,9.40
2022-12-08T17:06:42.688Z,9.70
2022-12-08T17:09:09.696Z,9.90
2022-12-08T17:11:43.045Z,9.69
2022-12-08T17:14:14.789Z,9.48
2022-12-08T17:16:42.601Z,9.25
2022-12-08T17:19:09.907Z,9.08
2022-12-08T17:21:36.920Z,9.09
2022-12-08T17:24:04.556Z,9.10
2022-12-08T17:26:31.630Z,9.14
2022-12-08T17:29:01.184Z,9.18
2022-12-08T17:31:30.845Z,9.10
2022-12-08T17:34:03.539Z,9.13
2022-12-08T17:36:30.528Z,9.07
2022-12-08T17:38:59.733Z,9.14
2022-12-08T17:41:27.041Z,9.05
2022-12-08T17:43:54.023Z,9.04
2022-12-08T17:46:22.082Z,9.00
2022-12-08T17:48:49.627Z,9.03
2022-12-08T17:51:16.996Z,9.05
2022-12-08T17:53:44.141Z,9.08
2022-12-08T17:56:16.937Z,9.03
2022-12-08T17:58:44.910Z,9.07
2022-12-08T18:01:12.749Z,9.05
2022-12-08T18:03:40.174Z,9.06
2022-12-08T18:06:12.652Z,9.05
2022-12-08T18:08:40.171Z,9.24
2022-12-08T18:11:16.186Z,9.13
2022-12-08T18:13:43.354Z,9.05
2022-12-08T18:16:10.568Z,9.07
2022-12-08T18:18:37.618Z,9.09
2022-12-08T18:21:09.660Z,9.10
2022-12-08T18:23:48.009Z,9.19
2022-12-08T18:26:16.784Z,9.64
2022-12-08T18:28:44.179Z,9.20
2022-12-08T18:31:14.216Z,8.99
2022-12-08T18:33:43.295Z,8.96
2022-12-08T18:36:13.636Z,8.96
2022-12-08T18:38:40.771Z,8.95
2022-12-08T18:41:09.493Z,9.07
2022-12-08T18:43:37.655Z,9.05
2022-12-08T18:46:08.165Z,9.04
2022-12-08T18:48:38.121Z,9.07
2022-12-08T18:51:11.550Z,9.12
2022-12-08T18:53:39.893Z,9.00
2022-12-08T18:56:07.743Z,8.89
2022-12-08T18:58:35.537Z,8.77
2022-12-08T19:01:02.573Z,8.67
2022-12-08T19:03:29.789Z,8.68
2022-12-08T19:06:07.177Z,8.72
2022-12-08T19:08:34.479Z,8.71
2022-12-08T19:11:01.640Z,8.67
2022-12-08T19:13:28.712Z,8.74
2022-12-08T19:15:55.969Z,8.79
2022-12-08T19:18:23.067Z,8.83
2022-12-08T19:20:50.410Z,8.95
2022-12-08T19:23:17.472Z,9.17
2022-12-08T19:25:44.488Z,9.06
2022-12-08T19:28:11.450Z,9.19
2022-12-08T19:30:38.430Z,9.03
2022-12-08T19:33:05.627Z,8.82
2022-12-08T19:35:32.617Z,8.83
2022-12-08T19:37:59.564Z,8.71
2022-12-08T19:40:44.892Z,8.60
2022-12-08T19:43:52.745Z,8.53
2022-12-08T19:46:19.835Z,8.52
2022-12-08T19:48:46.913Z,8.61
2022-12-08T19:51:13.956Z,8.67
2022-12-08T19:53:47.288Z,8.80
2022-12-08T19:56:14.809Z,8.88
2022-12-08T19:58:41.714Z,8.88
2022-12-08T20:01:08.695Z,8.72
2022-12-08T20:03:35.821Z,8.88
2022-12-08T20:06:02.935Z,8.65
2022-12-08T20:08:30.035Z,8.51
2022-12-08T20:10:59.256Z,8.48
2022-12-08T20:13:41.355Z,8.49
2022-12-08T20:16:09.942Z,8.47
2022-12-08T20:18:41.069Z,8.52
2022-12-08T20:21:09.070Z,8.45
2022-12-08T20:23:36.663Z,8.34
2022-12-08T20:26:08.281Z,8.33
2022-12-08T20:28:36.126Z,8.23
2022-12-08T20:31:03.627Z,8.29
2022-12-08T20:33:31.128Z,8.06
2022-12-08T20:36:00.130Z,8.04
2022-12-08T20:38:28.291Z,8.16
2022-12-08T20:40:55.779Z,7.96
2022-12-08T20:43:22.806Z,7.91
2022-12-08T20:45:49.885Z,7.87
2022-12-08T20:48:17.032Z,7.83
2022-12-08T20:50:44.467Z,7.74
2022-12-08T20:53:11.576Z,7.75
2022-12-08T20:55:41.700Z,7.79
2022-12-08T20:58:09.016Z,7.91
2022-12-08T21:00:36.038Z,7.81
2022-12-08T21:03:03.099Z,7.80
2022-12-08T21:05:30.579Z,7.72
2022-12-08T21:07:57.834Z,7.69
2022-12-08T21:10:24.933Z,7.66
2022-12-08T21:12:52.193Z,7.64
2022-12-08T21:15:19.271Z,7.61
2022-12-08T21:17:46.504Z,7.47
2022-12-08T21:20:13.667Z,7.39
2022-12-08T21:22:40.881Z,7.33
2022-12-08T21:25:09.260Z,7.31
2022-12-08T21:27:37.877Z,7.31
2022-12-08T21:30:06.854Z,7.35
2022-12-08T21:32:34.419Z,7.36
2022-12-08T21:35:01.911Z,7.35
2022-12-08T21:37:29.260Z,7.35
2022-12-08T21:39:56.283Z,7.41
2022-12-08T21:42:41.815Z,7.26
2022-12-08T21:45:09.982Z,7.26
2022-12-08T21:47:37.307Z,7.31
2022-12-08T21:50:05.741Z,7.39
2022-12-08T21:52:37.211Z,7.38
2022-12-08T21:55:05.387Z,7.40
2022-12-08T21:57:32.639Z,7.39
2022-12-08T21:59:59.959Z,7.28
2022-12-08T22:02:27.375Z,7.23
2022-12-08T22:04:54.543Z,7.29
2022-12-08T22:07:22.074Z,7.27
2022-12-08T22:09:49.512Z,7.19
2022-12-08T22:12:17.026Z,7.10
2022-12-08T22:14:44.436Z,7.11
2022-12-08T22:17:11.739Z,7.09
2022-12-08T22:19:38.830Z,7.11
2022-12-08T22:22:06.014Z,7.11
2022-12-08T22:24:32.997Z,7.14
2022-12-08T22:27:00.363Z,7.22
2022-12-08T22:29:27.438Z,7.17
2022-12-08T22:31:54.668Z,7.23
2022-12-08T22:34:21.715Z,7.13
2022-12-08T22:36:49.206Z,7.14
2022-12-08T22:39:16.213Z,7.09
2022-12-08T22:41:43.453Z,7.08
2022-12-08T22:44:12.304Z,6.91
2022-12-08T22:46:39.397Z,6.88
2022-12-08T22:49:06.494Z,6.80
2022-12-08T22:51:36.751Z,6.78
2022-12-08T22:54:04.431Z,6.84
2022-12-08T22:56:31.784Z,6.85
2022-12-08T22:58:58.987Z,6.87
2022-12-08T23:01:32.227Z,6.94
2022-12-08T23:04:00.225Z,6.93
2022-12-08T23:06:28.808Z,6.92
2022-12-08T23:08:56.629Z,6.90
2022-12-08T23:11:26.669Z,6.87
2022-12-08T23:13:53.696Z,6.90
2022-12-08T23:16:20.863Z,6.89
2022-12-08T23:18:47.970Z,6.83
2022-12-08T23:21:17.761Z,6.85
2022-12-08T23:23:45.104Z,6.86
2022-12-08T23:26:27.561Z,6.93
2022-12-08T23:29:04.112Z,6.95
2022-12-08T23:31:31.439Z,6.97
2022-12-08T23:33:58.713Z,7.03
2022-12-08T23:36:28.764Z,7.08
2022-12-08T23:38:56.091Z,7.22
2022-12-08T23:41:23.187Z,7.08
2022-12-08T23:43:51.916Z,7.07
2022-12-08T23:46:20.934Z,7.04
2022-12-08T23:48:48.096Z,6.99
2022-12-08T23:51:15.504Z,6.97
2022-12-08T23:53:42.840Z,6.99
2022-12-08T23:56:12.803Z,6.99
2022-12-08T23:58:40.643Z,6.99
